createdAt,value
2018-07-26T00:04:25.102Z,99.40
2018-07-26T00:06:54.031Z,99.10
2018-07-26T00:11:51.583Z,99.30
2018-07-26T00:14:20.459Z,99.20
2018-07-26T00:16:49.310Z,99.50
2018-07-26T00:19:18.158Z,99.40
2018-07-26T00:21:47.149Z,99.50
2018-07-26T00:24:15.868Z,99.50
2018-07-26T00:26:44.708Z,99.50
2018-07-26T00:29:13.549Z,99.50
2018-07-26T00:31:42.371Z,99.50
2018-07-26T00:34:11.248Z,99.90
2018-07-26T00:36:40.071Z,99.60
2018-07-26T00:39:10.559Z,99.60
2018-07-26T00:41:39.496Z,99.60
2018-07-26T00:44:08.771Z,99.70
2018-07-26T00:46:37.630Z,99.50
2018-07-26T00:49:06.511Z,99.70
2018-07-26T00:51:35.326Z,99.60
2018-07-26T00:54:04.230Z,99.50
2018-07-26T00:56:33.035Z,99.80
2018-07-26T00:59:01.910Z,99.80
2018-07-26T01:01:30.706Z,99.90
2018-07-26T01:03:59.579Z,99.80
2018-07-26T01:06:28.481Z,99.90
2018-07-26T01:08:57.354Z,99.80
2018-07-26T01:11:26.304Z,99.80
2018-07-26T01:13:55.161Z,99.90
2018-07-26T01:16:24.016Z,99.90
2018-07-26T01:21:21.672Z,99.90
2018-07-26T01:23:50.495Z,99.90
2018-07-26T01:26:19.279Z,99.90
2018-07-26T01:28:48.127Z,99.90
2018-07-26T01:31:16.975Z,99.90
2018-07-26T01:33:45.804Z,99.90
2018-07-26T01:36:14.687Z,99.90
2018-07-26T01:38:43.593Z,99.90
2018-07-26T01:41:12.463Z,99.90
2018-07-26T01:43:58.541Z,99.90
2018-07-26T01:46:27.500Z,99.90
2018-07-26T01:48:56.323Z,99.90
2018-07-26T01:51:25.299Z,99.90
2018-07-26T01:53:54.118Z,99.90
2018-07-26T01:56:22.994Z,99.90
2018-07-26T01:58:51.818Z,99.90
2018-07-26T02:01:20.623Z,99.90
2018-07-26T02:03:49.492Z,99.90
2018-07-26T02:06:18.323Z,99.90
2018-07-26T02:08:47.182Z,99.90
2018-07-26T02:13:44.790Z,99.90
2018-07-26T02:16:13.686Z,99.90
2018-07-26T02:18:42.513Z,99.90
2018-07-26T02:21:11.391Z,99.90
2018-07-26T02:23:40.187Z,99.90
2018-07-26T02:26:09.252Z,99.90
2018-07-26T02:28:38.102Z,99.90
2018-07-26T02:31:07.020Z,99.90
2018-07-26T02:33:35.808Z,99.90
2018-07-26T02:36:04.735Z,99.90
2018-07-26T02:38:33.560Z,99.90
2018-07-26T02:41:02.388Z,99.90
2018-07-26T02:43:31.271Z,99.90
2018-07-26T02:46:00.124Z,99.90
2018-07-26T02:48:29.043Z,99.90
2018-07-26T02:50:58.191Z,99.90
2018-07-26T02:53:27.035Z,99.90
2018-07-26T02:55:55.862Z,99.90
2018-07-26T02:58:24.796Z,99.90
2018-07-26T03:03:22.382Z,99.90
2018-07-26T03:05:51.252Z,99.90
2018-07-26T03:10:48.848Z,99.90
2018-07-26T03:13:20.734Z,99.90
2018-07-26T03:15:49.547Z,99.90
2018-07-26T03:18:18.407Z,99.90
2018-07-26T03:20:47.515Z,99.90
2018-07-26T03:23:16.323Z,99.90
2018-07-26T03:25:45.215Z,99.90
2018-07-26T03:28:14.046Z,99.90
2018-07-26T03:30:42.879Z,99.90
2018-07-26T03:33:11.766Z,99.90
2018-07-26T03:35:40.591Z,99.90
2018-07-26T03:38:09.510Z,99.90
2018-07-26T03:40:38.411Z,99.90
2018-07-26T03:43:07.243Z,99.90
2018-07-26T03:45:36.082Z,99.90
2018-07-26T03:48:05.211Z,99.90
2018-07-26T03:50:34.045Z,99.90
2018-07-26T03:53:02.879Z,99.90
2018-07-26T03:55:31.715Z,99.90
2018-07-26T03:58:00.590Z,99.90
2018-07-26T04:00:29.394Z,99.90
2018-07-26T04:02:58.251Z,99.90
2018-07-26T04:05:27.045Z,99.90
2018-07-26T04:07:55.859Z,99.90
2018-07-26T04:10:24.707Z,99.90
2018-07-26T04:12:53.527Z,99.90
2018-07-26T04:15:22.404Z,99.90
2018-07-26T04:17:55.996Z,99.90
2018-07-26T04:20:24.874Z,99.90
2018-07-26T04:22:53.712Z,99.90
2018-07-26T04:25:22.599Z,99.90
2018-07-26T04:27:51.515Z,99.90
2018-07-26T04:30:20.374Z,99.90
2018-07-26T04:32:49.207Z,99.90
2018-07-26T04:35:18.020Z,99.90
2018-07-26T04:37:46.891Z,99.90
2018-07-26T04:40:15.773Z,99.90
2018-07-26T04:45:13.321Z,99.90
2018-07-26T04:47:42.139Z,99.90
2018-07-26T04:50:11.006Z,99.80
2018-07-26T04:55:08.702Z,99.70
2018-07-26T04:57:37.584Z,99.70
2018-07-26T05:02:36.020Z,99.80
2018-07-26T05:05:05.814Z,99.60
2018-07-26T05:07:34.843Z,99.60
2018-07-26T05:10:04.095Z,99.60
2018-07-26T05:12:32.979Z,99.00
2018-07-26T05:17:30.547Z,98.70
2018-07-26T05:19:59.404Z,98.60
2018-07-26T05:22:28.258Z,98.90
2018-07-26T05:24:57.078Z,98.90
2018-07-26T05:27:25.924Z,99.20
2018-07-26T05:29:54.754Z,99.10
2018-07-26T05:32:23.613Z,97.90
2018-07-26T05:34:52.459Z,97.80
2018-07-26T05:37:21.307Z,97.50
2018-07-26T05:39:50.223Z,97.50
2018-07-26T05:42:19.062Z,97.10
2018-07-26T05:44:47.931Z,97.20
2018-07-26T05:47:16.734Z,96.90
2018-07-26T05:54:43.132Z,96.90
2018-07-26T05:57:11.991Z,96.80
2018-07-26T06:04:39.172Z,96.60
2018-07-26T06:09:36.844Z,96.80
2018-07-26T06:12:06.328Z,96.40
2018-07-26T06:14:35.180Z,95.90
2018-07-26T06:17:04.190Z,95.50
2018-07-26T06:19:33.044Z,95.60
2018-07-26T06:22:01.940Z,96.10
2018-07-26T06:24:30.794Z,96.20
2018-07-26T06:26:59.683Z,95.70
2018-07-26T06:29:28.534Z,95.70
2018-07-26T06:31:57.532Z,95.60
2018-07-26T06:34:26.352Z,96.00
2018-07-26T06:36:55.175Z,95.60
2018-07-26T06:39:24.139Z,95.90
2018-07-26T06:41:52.973Z,95.10
2018-07-26T06:44:21.822Z,95.10
2018-07-26T06:46:50.707Z,95.10
2018-07-26T06:49:19.540Z,95.10
2018-07-26T06:51:48.383Z,94.40
2018-07-26T06:54:17.231Z,94.10
2018-07-26T06:56:46.053Z,94.40
2018-07-26T06:59:14.952Z,94.30
2018-07-26T07:01:43.839Z,94.10
2018-07-26T07:04:12.750Z,94.20
2018-07-26T07:06:41.646Z,94.10
2018-07-26T07:09:11.692Z,94.50
2018-07-26T07:11:40.710Z,94.50
2018-07-26T07:14:09.627Z,94.70
2018-07-26T07:16:38.505Z,94.80
2018-07-26T07:19:07.919Z,94.90
2018-07-26T07:21:36.742Z,95.50
2018-07-26T07:24:06.767Z,95.20
2018-07-26T07:26:35.660Z,94.30
2018-07-26T07:29:04.593Z,94.30
2018-07-26T07:31:33.443Z,94.70
2018-07-26T07:34:02.352Z,94.90
2018-07-26T07:36:31.207Z,94.70
2018-07-26T07:39:00.043Z,94.80
2018-07-26T07:41:28.972Z,95.10
2018-07-26T07:43:57.813Z,93.90
2018-07-26T07:46:26.672Z,94.00
2018-07-26T07:48:55.548Z,93.70
2018-07-26T07:51:24.412Z,93.30
2018-07-26T07:53:53.238Z,93.40
2018-07-26T07:56:22.102Z,94.60
2018-07-26T07:58:50.928Z,93.60
2018-07-26T08:01:19.788Z,93.00
2018-07-26T08:03:48.656Z,92.80
2018-07-26T08:06:17.623Z,92.60
2018-07-26T08:08:46.482Z,92.10
2018-07-26T08:11:15.375Z,92.30
2018-07-26T08:16:12.983Z,92.00
2018-07-26T08:18:42.088Z,92.40
2018-07-26T08:21:10.944Z,92.10
2018-07-26T08:23:39.775Z,91.60
2018-07-26T08:26:08.639Z,91.60
2018-07-26T08:28:37.515Z,92.40
2018-07-26T08:31:06.496Z,92.50
2018-07-26T08:33:35.331Z,91.20
2018-07-26T08:36:04.515Z,91.10
2018-07-26T08:38:33.336Z,91.30
2018-07-26T08:41:02.299Z,91.20
2018-07-26T08:43:31.120Z,91.10
2018-07-26T08:45:59.980Z,91.10
2018-07-26T08:48:28.863Z,90.80
2018-07-26T08:50:57.739Z,90.70
2018-07-26T08:53:26.643Z,90.70
2018-07-26T08:55:55.507Z,90.60
2018-07-26T08:58:24.368Z,91.30
2018-07-26T09:00:53.271Z,91.00
2018-07-26T09:03:22.108Z,90.40
2018-07-26T09:05:50.943Z,89.90
2018-07-26T09:08:19.789Z,90.20
2018-07-26T09:10:48.704Z,90.30
2018-07-26T09:13:17.563Z,89.80
2018-07-26T09:15:46.375Z,90.00
2018-07-26T09:18:15.207Z,89.90
2018-07-26T09:20:44.048Z,91.20
2018-07-26T09:23:12.878Z,90.20
2018-07-26T09:28:10.492Z,90.50
2018-07-26T09:30:39.500Z,86.70
2018-07-26T09:33:08.436Z,88.20
2018-07-26T09:35:37.268Z,87.50
2018-07-26T09:38:06.304Z,88.40
2018-07-26T09:40:35.148Z,88.60
2018-07-26T09:43:04.206Z,86.20
2018-07-26T09:45:33.184Z,85.50
2018-07-26T09:48:02.036Z,86.60
2018-07-26T09:50:30.951Z,87.90
2018-07-26T09:52:59.819Z,86.20
2018-07-26T09:55:28.695Z,90.40
2018-07-26T09:57:57.547Z,88.20
2018-07-26T10:03:00.815Z,85.60
2018-07-26T10:05:29.655Z,85.80
2018-07-26T10:10:27.263Z,88.80
2018-07-26T10:12:56.111Z,86.30
2018-07-26T10:15:24.953Z,85.50
2018-07-26T10:17:53.864Z,85.20
2018-07-26T10:20:22.727Z,84.30
2018-07-26T10:22:51.632Z,84.50
2018-07-26T10:25:20.514Z,82.20
2018-07-26T10:27:49.397Z,79.70
2018-07-26T10:30:18.268Z,78.90
2018-07-26T10:32:47.096Z,79.90
2018-07-26T10:35:15.968Z,79.00
2018-07-26T10:37:44.868Z,79.30
2018-07-26T10:40:13.707Z,77.90
2018-07-26T10:45:11.307Z,77.70
2018-07-26T10:50:10.036Z,80.00
2018-07-26T10:52:39.014Z,83.60
2018-07-26T10:55:08.351Z,80.80
2018-07-26T10:57:38.134Z,82.40
2018-07-26T11:00:08.335Z,80.50
2018-07-26T11:02:38.682Z,81.20
2018-07-26T11:05:08.895Z,80.90
2018-07-26T11:07:38.423Z,78.60
2018-07-26T11:10:09.550Z,81.40
2018-07-26T11:12:38.572Z,80.60
2018-07-26T11:15:27.812Z,83.50
2018-07-26T11:17:56.934Z,90.00
2018-07-26T11:20:25.864Z,91.10
2018-07-26T11:22:54.846Z,93.10
2018-07-26T11:25:23.735Z,94.30
2018-07-26T11:27:53.083Z,96.10
2018-07-26T11:30:22.283Z,96.70
2018-07-26T11:32:51.123Z,97.00
2018-07-26T11:35:20.019Z,98.30
2018-07-26T11:37:48.954Z,98.90
2018-07-26T11:42:46.557Z,98.90
2018-07-26T11:45:15.421Z,99.20
2018-07-26T11:47:44.315Z,99.40
2018-07-26T11:50:13.236Z,99.90
2018-07-26T11:52:42.127Z,99.90
2018-07-26T11:55:11.100Z,99.90
2018-07-26T11:57:39.974Z,99.90
2018-07-26T12:00:09.036Z,99.90
2018-07-26T12:05:06.736Z,99.90
2018-07-26T12:07:35.699Z,99.90
2018-07-26T12:12:33.853Z,98.70
2018-07-26T12:15:04.012Z,97.60
2018-07-26T12:17:32.863Z,96.20
2018-07-26T12:20:01.740Z,97.00
2018-07-26T12:22:30.571Z,97.10
2018-07-26T12:24:59.380Z,95.20
2018-07-26T12:29:57.060Z,95.10
2018-07-26T12:32:25.973Z,96.10
2018-07-26T12:34:54.799Z,94.60
2018-07-26T12:37:23.654Z,95.70
2018-07-26T12:39:52.515Z,94.10
2018-07-26T12:42:21.391Z,94.00
2018-07-26T12:44:50.244Z,94.20
2018-07-26T12:47:19.128Z,93.70
2018-07-26T12:49:48.038Z,95.00
2018-07-26T12:52:19.771Z,94.40
2018-07-26T12:54:49.190Z,95.10
2018-07-26T12:57:18.285Z,93.90
2018-07-26T12:59:47.202Z,93.40
2018-07-26T13:02:16.047Z,93.50
2018-07-26T13:04:44.888Z,92.90
2018-07-26T13:07:13.870Z,92.40
2018-07-26T13:09:42.719Z,92.20
2018-07-26T13:12:11.591Z,91.10
2018-07-26T13:14:40.456Z,90.80
2018-07-26T13:17:09.459Z,87.90
2018-07-26T13:19:38.351Z,89.00
2018-07-26T13:22:07.276Z,89.00
2018-07-26T13:24:36.115Z,86.50
2018-07-26T13:27:05.366Z,81.80
2018-07-26T13:29:34.467Z,84.00
2018-07-26T13:32:03.383Z,83.50
2018-07-26T13:34:32.232Z,81.70
2018-07-26T13:37:01.054Z,79.00
2018-07-26T13:39:29.916Z,79.80
2018-07-26T13:41:58.818Z,79.00
2018-07-26T13:44:27.643Z,74.10
2018-07-26T13:46:56.474Z,78.00
2018-07-26T13:49:25.298Z,79.00
2018-07-26T13:51:54.147Z,79.20
2018-07-26T13:54:22.971Z,79.50
2018-07-26T13:56:52.317Z,80.50
2018-07-26T13:59:21.047Z,84.80
2018-07-26T14:01:50.205Z,92.80
2018-07-26T14:04:19.071Z,93.60
2018-07-26T14:06:47.970Z,92.70
2018-07-26T14:09:16.856Z,92.20
2018-07-26T14:11:45.751Z,93.00
2018-07-26T14:14:14.607Z,94.90
2018-07-26T14:16:43.467Z,95.60
2018-07-26T14:19:12.286Z,96.60
2018-07-26T14:21:41.115Z,97.10
2018-07-26T14:24:15.396Z,96.30
2018-07-26T14:26:44.271Z,97.60
2018-07-26T14:29:13.104Z,98.40
2018-07-26T14:31:41.992Z,98.20
2018-07-26T14:34:10.902Z,98.80
2018-07-26T14:36:39.778Z,99.00
2018-07-26T14:39:10.174Z,99.00
2018-07-26T14:41:39.451Z,99.80
2018-07-26T14:44:08.811Z,96.10
2018-07-26T14:46:38.171Z,94.60
2018-07-26T14:49:07.132Z,94.80
2018-07-26T14:51:36.036Z,93.90
2018-07-26T14:54:05.153Z,93.80
2018-07-26T14:56:33.951Z,93.90
2018-07-26T14:59:02.977Z,94.00
2018-07-26T15:01:31.863Z,92.30
2018-07-26T15:04:00.746Z,91.90
2018-07-26T15:08:58.418Z,90.50
2018-07-26T15:11:27.315Z,90.20
2018-07-26T15:13:56.155Z,90.40
2018-07-26T15:16:25.037Z,89.10
2018-07-26T15:21:22.778Z,89.40
2018-07-26T15:23:51.984Z,89.10
2018-07-26T15:26:21.065Z,87.70
2018-07-26T15:28:50.006Z,87.70
2018-07-26T15:31:18.842Z,86.20
2018-07-26T15:36:16.494Z,88.70
2018-07-26T15:38:45.436Z,88.20
2018-07-26T15:43:43.162Z,88.80
2018-07-26T15:46:12.034Z,88.70
2018-07-26T15:48:40.929Z,89.00
2018-07-26T15:51:09.828Z,90.40
2018-07-26T15:53:38.737Z,91.20
2018-07-26T15:56:07.623Z,92.10
2018-07-26T15:58:36.518Z,90.10
2018-07-26T16:01:05.448Z,90.30
2018-07-26T16:03:34.578Z,90.70
2018-07-26T16:06:03.389Z,88.50
2018-07-26T16:08:32.330Z,90.60
2018-07-26T16:13:29.907Z,88.60
2018-07-26T16:15:58.822Z,87.90
2018-07-26T16:18:27.713Z,88.50
2018-07-26T16:20:56.575Z,90.00
2018-07-26T16:23:25.426Z,90.20
2018-07-26T16:25:54.255Z,90.90
2018-07-26T16:28:23.172Z,90.20
2018-07-26T16:30:52.037Z,90.40
2018-07-26T16:33:20.908Z,89.40
2018-07-26T16:35:49.754Z,90.00
2018-07-26T16:38:18.653Z,90.50
2018-07-26T16:40:47.555Z,90.00
2018-07-26T16:43:16.415Z,88.80
2018-07-26T16:45:45.294Z,89.00
2018-07-26T16:48:14.147Z,90.30
2018-07-26T16:50:43.064Z,89.90
2018-07-26T16:53:11.967Z,91.10
2018-07-26T16:55:40.823Z,89.80
2018-07-26T16:58:10.632Z,90.00
2018-07-26T17:00:39.479Z,89.50
2018-07-26T17:03:08.367Z,89.70
2018-07-26T17:05:37.491Z,91.00
2018-07-26T17:08:06.462Z,91.10
2018-07-26T17:10:35.355Z,90.70
2018-07-26T17:13:04.288Z,91.00
2018-07-26T17:15:33.551Z,90.60
2018-07-26T17:18:02.865Z,90.80
2018-07-26T17:20:31.744Z,91.30
2018-07-26T17:23:01.048Z,91.40
2018-07-26T17:25:30.695Z,92.00
2018-07-26T17:28:00.084Z,92.30
2018-07-26T17:30:29.075Z,92.20
2018-07-26T17:32:57.958Z,92.40
2018-07-26T17:35:26.807Z,92.40
2018-07-26T17:37:55.688Z,92.80
2018-07-26T17:40:24.654Z,92.80
2018-07-26T17:42:53.560Z,92.70
2018-07-26T17:45:23.026Z,92.40
2018-07-26T17:47:51.900Z,92.50
2018-07-26T17:50:21.676Z,93.00
2018-07-26T17:52:50.637Z,93.00
2018-07-26T17:55:19.472Z,93.80
2018-07-26T17:57:48.351Z,93.60
2018-07-26T18:00:17.280Z,93.10
2018-07-26T18:02:46.185Z,93.40
2018-07-26T18:05:15.896Z,93.20
2018-07-26T18:07:46.246Z,93.40
2018-07-26T18:10:15.217Z,93.20
2018-07-26T18:15:13.348Z,93.10
2018-07-26T18:17:42.231Z,92.90
2018-07-26T18:20:11.172Z,92.70
2018-07-26T18:22:39.976Z,92.60
2018-07-26T18:25:09.034Z,92.90
2018-07-26T18:27:38.499Z,93.30
2018-07-26T18:30:08.043Z,93.60
2018-07-26T18:32:37.570Z,94.00
2018-07-26T18:35:06.875Z,94.30
2018-07-26T18:37:35.747Z,94.00
2018-07-26T18:40:06.640Z,93.60
2018-07-26T18:42:35.469Z,93.70
2018-07-26T18:47:34.092Z,93.80
2018-07-26T18:50:03.253Z,93.70
2018-07-26T18:52:32.674Z,93.70
2018-07-26T18:55:01.520Z,94.10
2018-07-26T18:57:30.796Z,94.40
2018-07-26T19:00:01.500Z,94.20
2018-07-26T19:02:31.936Z,94.20
2018-07-26T19:05:01.831Z,94.40
2018-07-26T19:07:31.211Z,94.60
2018-07-26T19:10:00.701Z,94.40
2018-07-26T19:12:29.844Z,94.40
2018-07-26T19:14:59.783Z,95.00
2018-07-26T19:19:59.817Z,95.40
2018-07-26T19:22:29.092Z,95.40
2018-07-26T19:24:58.783Z,95.50
2018-07-26T19:27:31.006Z,95.50
2018-07-26T19:30:01.386Z,95.70
2018-07-26T19:32:31.707Z,95.70
2018-07-26T19:35:02.022Z,95.70
2018-07-26T19:37:33.128Z,95.60
2018-07-26T19:40:03.196Z,95.90
2018-07-26T19:45:03.355Z,95.90
2018-07-26T19:47:32.748Z,95.90
2018-07-26T19:50:07.580Z,96.30
2018-07-26T19:52:36.638Z,96.20
2018-07-26T19:55:09.815Z,96.50
2018-07-26T19:57:39.371Z,96.60
2018-07-26T20:00:11.077Z,96.20
2018-07-26T20:02:40.099Z,96.50
2018-07-26T20:05:10.104Z,96.20
2018-07-26T20:07:41.083Z,96.60
2018-07-26T20:10:12.063Z,96.80
2018-07-26T20:12:41.986Z,97.10
2018-07-26T20:15:11.038Z,97.20
2018-07-26T20:17:39.931Z,96.90
2018-07-26T20:20:10.553Z,97.00
2018-07-26T20:22:39.615Z,96.90
2018-07-26T20:25:09.123Z,97.10
2018-07-26T20:27:38.352Z,97.20
2018-07-26T20:30:08.964Z,97.70
2018-07-26T20:32:38.176Z,97.30
2018-07-26T20:35:07.569Z,97.20
2018-07-26T20:37:37.091Z,97.50
2018-07-26T20:40:09.279Z,97.60
2018-07-26T20:42:39.104Z,97.60
2018-07-26T20:45:10.187Z,97.70
2018-07-26T20:47:39.456Z,97.70
2018-07-26T20:50:09.247Z,97.90
2018-07-26T20:55:07.373Z,98.50
2018-07-26T20:57:36.234Z,98.30
2018-07-26T21:00:09.002Z,98.60
2018-07-26T21:02:37.914Z,98.60
2018-07-26T21:05:06.820Z,98.80
2018-07-26T21:10:05.351Z,98.80
2018-07-26T21:12:34.440Z,98.70
2018-07-26T21:15:03.702Z,99.00
2018-07-26T21:17:32.895Z,99.10
2018-07-26T21:20:01.859Z,99.10
2018-07-26T21:22:30.968Z,99.10
2018-07-26T21:24:59.820Z,99.20
2018-07-26T21:27:28.664Z,99.30
2018-07-26T21:29:58.503Z,99.20
2018-07-26T21:32:27.323Z,99.30
2018-07-26T21:34:56.180Z,99.30
2018-07-26T21:37:25.094Z,99.30
2018-07-26T21:39:54.290Z,99.40
2018-07-26T21:42:23.107Z,99.50
2018-07-26T21:44:51.932Z,99.60
2018-07-26T21:49:49.627Z,99.80
2018-07-26T21:52:18.568Z,99.90
2018-07-26T21:54:47.505Z,99.80
2018-07-26T21:57:17.018Z,99.90
2018-07-26T21:59:45.889Z,99.90
2018-07-26T22:04:43.519Z,99.90
2018-07-26T22:07:12.440Z,99.90
2018-07-26T22:12:10.188Z,99.90
2018-07-26T22:14:39.018Z,99.90
2018-07-26T22:17:07.877Z,99.90
2018-07-26T22:19:36.928Z,99.90
2018-07-26T22:22:06.053Z,99.90
2018-07-26T22:24:34.883Z,99.90
2018-07-26T22:27:03.752Z,99.90
2018-07-26T22:29:32.580Z,99.90
2018-07-26T22:32:01.414Z,99.90
2018-07-26T22:34:30.276Z,99.90
2018-07-26T22:36:59.112Z,99.90
2018-07-26T22:39:28.326Z,99.90
2018-07-26T22:41:57.099Z,99.90
2018-07-26T22:44:26.195Z,99.90
2018-07-26T22:46:55.008Z,99.90
2018-07-26T22:51:52.715Z,99.90
2018-07-26T22:54:21.554Z,99.90
2018-07-26T22:56:50.440Z,99.90
2018-07-26T23:01:48.080Z,99.90
2018-07-26T23:04:16.971Z,99.90
2018-07-26T23:06:45.876Z,99.90
2018-07-26T23:09:14.740Z,99.90
2018-07-26T23:11:43.587Z,99.90
2018-07-26T23:14:12.395Z,99.90
2018-07-26T23:16:41.279Z,99.90
2018-07-26T23:19:10.228Z,99.90
2018-07-26T23:21:39.104Z,99.90
2018-07-26T23:24:07.994Z,99.90
2018-07-26T23:26:36.846Z,99.90
2018-07-26T23:29:05.800Z,99.90
2018-07-26T23:31:34.635Z,99.90
2018-07-26T23:34:03.527Z,99.90
2018-07-26T23:39:01.148Z,99.90
2018-07-26T23:41:29.986Z,99.90
2018-07-26T23:43:58.864Z,99.90
2018-07-26T23:46:27.728Z,99.90
2018-07-26T23:48:56.683Z,99.90
2018-07-26T23:51:25.555Z,99.90
2018-07-26T23:56:23.095Z,99.90
2018-07-26T23:58:52.010Z,99.90
